Time;durP1;ratioP1;P1;durP2;ratioP2;P2;SDS_P1;SDS_P2;PMS_P1;PMS_P2;Temp;Humidity;BMP_temperature;BMP_pressure;BME280_temperature;BME280_humidity;BME280_pressure;Samples;Min_cycle;Max_cycle;Signal;HPM_P1;HPM_P2
2022/03/03 00:00:55;;;;;;;19.40;11.68;;;;;;;;;;5088260;28;20063;-70
2022/03/03 00:03:21;;;;;;;15.63;11.85;;;;;;;;;;5087720;28;20040;-70
2022/03/03 00:05:47;;;;;;;13.75;11.35;;;;;;;;;;5088141;28;20055;-70
2022/03/03 00:08:13;;;;;;;14.25;11.50;;;;;;;;;;5079342;28;20482;-70
2022/03/03 00:10:39;;;;;;;12.85;11.02;;;;;;;;;;5088006;28;20046;-70
2022/03/03 00:13:05;;;;;;;13.82;10.95;;;;;;;;;;5079589;28;20040;-70
2022/03/03 00:15:34;;;;;;;13.05;11.05;;;;;;;;;;5080937;28;20040;-69
2022/03/03 00:18:00;;;;;;;16.00;11.90;;;;;;;;;;5079042;28;20440;-70
2022/03/03 00:20:26;;;;;;;12.77;10.90;;;;;;;;;;5087528;28;20074;-69
2022/03/03 00:22:53;;;;;;;12.63;10.98;;;;;;;;;;5087851;28;20123;-69
2022/03/03 00:25:19;;;;;;;14.75;11.52;;;;;;;;;;5078687;28;20097;-69
2022/03/03 00:27:45;;;;;;;13.73;10.98;;;;;;;;;;5087441;28;20689;-69
2022/03/03 00:30:11;;;;;;;13.13;11.02;;;;;;;;;;5087798;28;20172;-69
2022/03/03 00:32:40;;;;;;;13.65;11.60;;;;;;;;;;5086699;28;20497;-69
2022/03/03 00:35:08;;;;;;;14.10;11.55;;;;;;;;;;5087437;28;20194;-70
2022/03/03 00:37:34;;;;;;;13.25;10.98;;;;;;;;;;5086954;28;20048;-70
2022/03/03 00:40:00;;;;;;;12.93;10.77;;;;;;;;;;5087233;28;20493;-69
2022/03/03 00:42:26;;;;;;;13.00;11.27;;;;;;;;;;5078300;28;20048;-69
2022/03/03 00:44:52;;;;;;;12.27;10.48;;;;;;;;;;5087258;28;20040;-70
2022/03/03 00:47:18;;;;;;;13.00;11.02;;;;;;;;;;5087217;28;20454;-70
2022/03/03 00:49:44;;;;;;;13.05;11.02;;;;;;;;;;5087003;28;20584;-69
2022/03/03 00:52:10;;;;;;;13.70;10.98;;;;;;;;;;5080166;28;20047;-70
2022/03/03 00:54:36;;;;;;;12.82;10.98;;;;;;;;;;5077630;28;20048;-70
2022/03/03 00:57:02;;;;;;;12.05;10.35;;;;;;;;;;5087254;28;20046;-70
2022/03/03 00:59:28;;;;;;;12.63;10.65;;;;;;;;;;5080205;28;20071;-71
2022/03/03 01:01:54;;;;;;;12.20;10.38;;;;;;;;;;5059232;28;20139;-69
2022/03/03 01:04:22;;;;;;;12.60;10.35;;;;;;;;;;5087429;28;20059;-70
2022/03/03 01:06:48;;;;;;;13.40;11.45;;;;;;;;;;5077758;28;20482;-71
2022/03/03 01:09:14;;;;;;;13.43;10.50;;;;;;;;;;5080080;28;20521;-70
2022/03/03 01:11:40;;;;;;;12.68;10.55;;;;;;;;;;5061166;28;20272;-71
2022/03/03 01:14:06;;;;;;;11.95;10.45;;;;;;;;;;5086488;28;20162;-71
2022/03/03 01:16:32;;;;;;;11.18;9.70;;;;;;;;;;5086370;28;20055;-70
2022/03/03 01:18:58;;;;;;;13.05;10.45;;;;;;;;;;5086913;28;20050;-70
2022/03/03 01:21:25;;;;;;;12.82;10.25;;;;;;;;;;5076296;28;20056;-69
2022/03/03 01:23:51;;;;;;;13.00;10.45;;;;;;;;;;5084650;28;20505;-69
2022/03/03 01:26:18;;;;;;;11.82;10.07;;;;;;;;;;5087457;28;20066;-70
2022/03/03 01:28:44;;;;;;;12.77;10.57;;;;;;;;;;5087306;28;20088;-69
2022/03/03 01:31:10;;;;;;;12.82;10.73;;;;;;;;;;5086465;28;20530;-70
2022/03/03 01:33:36;;;;;;;11.70;10.18;;;;;;;;;;5085120;28;20134;-70
2022/03/03 01:36:03;;;;;;;11.98;10.23;;;;;;;;;;5077197;28;20086;-69
2022/03/03 01:38:29;;;;;;;12.63;10.20;;;;;;;;;;5078032;28;20474;-69
2022/03/03 01:40:55;;;;;;;12.07;10.32;;;;;;;;;;5076917;28;20452;-69
2022/03/03 01:43:21;;;;;;;11.63;10.13;;;;;;;;;;5086356;28;20036;-69
2022/03/03 01:45:47;;;;;;;13.00;10.30;;;;;;;;;;5086959;28;20436;-69
2022/03/03 01:48:13;;;;;;;12.80;10.57;;;;;;;;;;5077382;28;20055;-69
2022/03/03 01:50:39;;;;;;;12.52;10.27;;;;;;;;;;5076773;28;20127;-69
2022/03/03 01:53:05;;;;;;;12.95;10.60;;;;;;;;;;5077757;28;20461;-69
2022/03/03 01:55:32;;;;;;;12.00;10.07;;;;;;;;;;5084775;28;20070;-68
2022/03/03 01:58:00;;;;;;;12.98;10.68;;;;;;;;;;5062814;28;20050;-69
2022/03/03 02:00:26;;;;;;;12.32;10.38;;;;;;;;;;5070663;28;20036;-68
2022/03/03 02:02:52;;;;;;;17.38;11.25;;;;;;;;;;5078569;28;20438;-70
2022/03/03 02:05:18;;;;;;;14.00;11.13;;;;;;;;;;5076359;28;20082;-69
2022/03/03 02:07:44;;;;;;;15.85;11.60;;;;;;;;;;5076959;28;20502;-70
2022/03/03 02:10:10;;;;;;;15.38;11.82;;;;;;;;;;5086910;28;20098;-70
2022/03/03 02:12:36;;;;;;;15.48;10.80;;;;;;;;;;5086345;28;20044;-70
2022/03/03 02:15:03;;;;;;;14.27;10.95;;;;;;;;;;5085063;28;20044;-70
2022/03/03 02:17:29;;;;;;;13.73;11.13;;;;;;;;;;5059631;28;20108;-69
2022/03/03 02:19:55;;;;;;;14.00;11.18;;;;;;;;;;5086161;28;20056;-69
2022/03/03 02:22:21;;;;;;;13.70;11.25;;;;;;;;;;5086479;28;20475;-70
2022/03/03 02:24:47;;;;;;;13.65;10.98;;;;;;;;;;5079828;28;20115;-70
2022/03/03 02:27:13;;;;;;;14.27;11.98;;;;;;;;;;5077779;28;20116;-70
2022/03/03 02:29:40;;;;;;;13.70;10.98;;;;;;;;;;5086079;28;20438;-69
2022/03/03 02:32:06;;;;;;;14.50;11.70;;;;;;;;;;5085833;28;20063;-70
2022/03/03 02:34:33;;;;;;;15.02;12.05;;;;;;;;;;5085223;28;20052;-70
2022/03/03 02:36:59;;;;;;;15.38;11.10;;;;;;;;;;5085507;28;20375;-70
2022/03/03 02:39:25;;;;;;;13.82;11.32;;;;;;;;;;5085263;28;20078;-70
2022/03/03 02:41:51;;;;;;;13.85;11.45;;;;;;;;;;5085659;28;20052;-69
2022/03/03 02:44:18;;;;;;;13.82;11.45;;;;;;;;;;5075758;28;20486;-71
2022/03/03 02:46:44;;;;;;;14.20;11.40;;;;;;;;;;5075891;28;20404;-70
2022/03/03 02:49:10;;;;;;;12.20;9.95;;;;;;;;;;5080688;28;20405;-70
2022/03/03 02:51:36;;;;;;;13.02;11.07;;;;;;;;;;5063189;28;20040;-70
2022/03/03 02:54:02;;;;;;;14.05;10.65;;;;;;;;;;5088844;28;20132;-70
2022/03/03 02:56:29;;;;;;;13.02;10.23;;;;;;;;;;5058405;28;20047;-70
2022/03/03 02:58:55;;;;;;;13.23;11.10;;;;;;;;;;5079744;28;20044;-71
2022/03/03 03:01:21;;;;;;;13.38;11.35;;;;;;;;;;5081796;28;20517;-71
2022/03/03 03:03:47;;;;;;;13.73;10.85;;;;;;;;;;5089305;28;20493;-70
2022/03/03 03:06:14;;;;;;;12.95;10.93;;;;;;;;;;5089175;28;20485;-70
2022/03/03 03:08:41;;;;;;;13.63;10.93;;;;;;;;;;5078047;28;20159;-70
2022/03/03 03:11:07;;;;;;;13.43;10.90;;;;;;;;;;5089252;28;20396;-70
2022/03/03 03:13:33;;;;;;;13.05;10.52;;;;;;;;;;5088838;28;20539;-70
2022/03/03 03:15:59;;;;;;;13.57;10.80;;;;;;;;;;5088959;28;20459;-71
2022/03/03 03:18:25;;;;;;;13.48;10.93;;;;;;;;;;5062657;28;20043;-72
2022/03/03 03:20:52;;;;;;;13.13;11.27;;;;;;;;;;5088300;28;20055;-72
2022/03/03 03:23:19;;;;;;;12.82;10.63;;;;;;;;;;5079910;28;20578;-71
2022/03/03 03:25:45;;;;;;;12.00;10.63;;;;;;;;;;5078190;28;20047;-72
2022/03/03 03:28:11;;;;;;;14.23;11.00;;;;;;;;;;5080354;28;20453;-71
2022/03/03 03:30:38;;;;;;;12.90;11.10;;;;;;;;;;5077668;28;20131;-71
2022/03/03 03:33:04;;;;;;;12.75;10.70;;;;;;;;;;5079822;28;20113;-71
2022/03/03 03:35:30;;;;;;;12.15;10.27;;;;;;;;;;5087937;28;20052;-71
2022/03/03 03:37:56;;;;;;;11.98;10.15;;;;;;;;;;5088680;28;20127;-71
2022/03/03 03:40:22;;;;;;;12.75;10.50;;;;;;;;;;5062852;28;20054;-73
2022/03/03 03:42:49;;;;;;;14.77;10.40;;;;;;;;;;5088498;28;20135;-73
2022/03/03 03:45:15;;;;;;;12.23;10.63;;;;;;;;;;5088808;28;20048;-73
2022/03/03 03:47:41;;;;;;;14.90;10.55;;;;;;;;;;5081097;28;20387;-73
2022/03/03 03:50:08;;;;;;;13.98;10.48;;;;;;;;;;5088939;28;20048;-73
2022/03/03 03:52:38;;;;;;;14.07;10.38;;;;;;;;;;5065009;28;20108;-73
2022/03/03 03:55:05;;;;;;;11.98;10.10;;;;;;;;;;5082490;28;20050;-73
2022/03/03 03:57:31;;;;;;;12.88;10.23;;;;;;;;;;5088816;28;20047;-73
2022/03/03 03:59:57;;;;;;;12.13;10.48;;;;;;;;;;5078277;28;20097;-73
2022/03/03 04:02:23;;;;;;;13.80;10.57;;;;;;;;;;5079472;28;20097;-73
2022/03/03 04:04:50;;;;;;;15.20;10.35;;;;;;;;;;5079174;28;20454;-73
2022/03/03 04:07:16;;;;;;;13.55;10.52;;;;;;;;;;5080932;28;20040;-73
2022/03/03 04:09:42;;;;;;;14.48;10.73;;;;;;;;;;5062815;28;20105;-73
2022/03/03 04:12:08;;;;;;;12.60;10.45;;;;;;;;;;5062185;28;20052;-74
2022/03/03 04:14:34;;;;;;;12.88;10.57;;;;;;;;;;5082744;28;20040;-73
2022/03/03 04:17:00;;;;;;;13.25;10.77;;;;;;;;;;5088722;28;20093;-73
2022/03/03 04:19:26;;;;;;;12.18;10.10;;;;;;;;;;5077998;28;20174;-73
2022/03/03 04:21:52;;;;;;;16.25;9.98;;;;;;;;;;5087987;28;20052;-73
2022/03/03 04:24:18;;;;;;;11.95;10.23;;;;;;;;;;5063338;28;20129;-73
2022/03/03 04:26:44;;;;;;;11.80;9.57;;;;;;;;;;5078812;28;20094;-71
2022/03/03 04:29:10;;;;;;;11.32;9.80;;;;;;;;;;5079649;28;20105;-71
2022/03/03 04:31:37;;;;;;;13.38;10.05;;;;;;;;;;5088265;28;20128;-71
2022/03/03 04:34:03;;;;;;;11.82;9.75;;;;;;;;;;5087499;28;20477;-70
2022/03/03 04:36:29;;;;;;;14.25;10.25;;;;;;;;;;5081898;28;20134;-71
2022/03/03 04:38:55;;;;;;;12.60;10.02;;;;;;;;;;5063124;28;20047;-70
2022/03/03 04:41:21;;;;;;;12.07;9.57;;;;;;;;;;5080173;28;20067;-68
2022/03/03 04:43:47;;;;;;;18.27;10.30;;;;;;;;;;5077003;28;20067;-72
2022/03/03 04:46:13;;;;;;;14.38;10.15;;;;;;;;;;5075985;28;20083;-72
2022/03/03 04:48:40;;;;;;;18.48;10.32;;;;;;;;;;5079924;28;20052;-72
2022/03/03 04:51:06;;;;;;;14.80;10.13;;;;;;;;;;5077987;28;20040;-72
2022/03/03 04:53:32;;;;;;;13.10;10.35;;;;;;;;;;5061410;28;20083;-71
2022/03/03 04:55:58;;;;;;;15.13;9.93;;;;;;;;;;5087296;28;20044;-71
2022/03/03 04:58:24;;;;;;;12.20;9.40;;;;;;;;;;5079561;28;20096;-71
2022/03/03 05:00:51;;;;;;;11.85;9.55;;;;;;;;;;5087424;28;20044;-71
2022/03/03 05:03:17;;;;;;;15.48;9.82;;;;;;;;;;5087853;28;20042;-71
2022/03/03 05:05:43;;;;;;;14.65;10.27;;;;;;;;;;5079242;28;20059;-71
2022/03/03 05:08:09;;;;;;;11.88;9.70;;;;;;;;;;5087456;28;20228;-70
2022/03/03 05:10:35;;;;;;;12.00;9.95;;;;;;;;;;5077336;28;20151;-71
2022/03/03 05:13:01;;;;;;;13.32;10.07;;;;;;;;;;5077698;28;20048;-71
2022/03/03 05:15:27;;;;;;;14.60;10.38;;;;;;;;;;5077131;28;20075;-71
2022/03/03 05:17:53;;;;;;;11.57;9.52;;;;;;;;;;5086831;28;20047;-72
2022/03/03 05:20:19;;;;;;;14.20;10.27;;;;;;;;;;5086586;28;20114;-72
2022/03/03 05:22:45;;;;;;;12.32;10.27;;;;;;;;;;5061126;28;20457;-72
2022/03/03 05:25:11;;;;;;;12.40;10.15;;;;;;;;;;5086777;28;20054;-72
2022/03/03 05:27:39;;;;;;;10.80;9.40;;;;;;;;;;5073707;28;20401;-71
2022/03/03 05:30:06;;;;;;;11.90;9.88;;;;;;;;;;5078159;28;20040;-71
2022/03/03 05:32:32;;;;;;;11.40;9.40;;;;;;;;;;5077192;28;20071;-70
2022/03/03 05:34:58;;;;;;;13.13;9.98;;;;;;;;;;5086077;28;20075;-70
2022/03/03 05:37:25;;;;;;;12.13;10.15;;;;;;;;;;5084123;28;20151;-71
2022/03/03 05:39:51;;;;;;;11.00;9.02;;;;;;;;;;5077160;28;20116;-70
2022/03/03 05:42:19;;;;;;;11.85;9.48;;;;;;;;;;5076808;28;20131;-70
2022/03/03 05:44:46;;;;;;;14.27;10.27;;;;;;;;;;5077427;28;20036;-69
2022/03/03 05:47:12;;;;;;;11.68;9.73;;;;;;;;;;5078145;28;20489;-70
2022/03/03 05:49:40;;;;;;;16.75;9.90;;;;;;;;;;5086172;28;20113;-71
2022/03/03 05:52:07;;;;;;;14.25;10.20;;;;;;;;;;5077715;28;20052;-71
2022/03/03 05:54:33;;;;;;;11.70;9.43;;;;;;;;;;5079736;28;20038;-71
2022/03/03 05:57:01;;;;;;;12.35;9.68;;;;;;;;;;5086143;28;20130;-70
2022/03/03 05:59:29;;;;;;;12.05;9.63;;;;;;;;;;5080326;28;20044;-70
2022/03/03 06:01:55;;;;;;;11.70;9.27;;;;;;;;;;5076813;28;21751;-70
2022/03/03 06:04:23;;;;;;;12.23;9.40;;;;;;;;;;5072102;28;20109;-71
2022/03/03 06:07:18;;;;;;;11.40;9.15;;;;;;;;;;5077385;28;20055;-71
2022/03/03 06:09:46;;;;;;;11.63;9.18;;;;;;;;;;5074070;28;20471;-71
2022/03/03 06:12:23;;;;;;;14.88;9.02;;;;;;;;;;5076087;28;20036;-71
2022/03/03 06:14:53;;;;;;;12.82;9.60;;;;;;;;;;5077777;28;20059;-71
2022/03/03 06:17:24;;;;;;;11.05;8.95;;;;;;;;;;5075983;28;20051;-71
2022/03/03 06:19:52;;;;;;;11.27;9.50;;;;;;;;;;5079970;28;20512;-71
2022/03/03 06:22:18;;;;;;;11.93;9.35;;;;;;;;;;5078414;28;20131;-72
2022/03/03 06:24:45;;;;;;;10.95;9.02;;;;;;;;;;5082533;28;20059;-70
2022/03/03 06:27:11;;;;;;;13.85;9.30;;;;;;;;;;5083498;28;20044;-70
2022/03/03 06:29:38;;;;;;;11.48;9.27;;;;;;;;;;5090392;28;20095;-70
2022/03/03 06:32:04;;;;;;;11.18;9.25;;;;;;;;;;5089919;28;20135;-70
2022/03/03 06:34:31;;;;;;;11.75;9.35;;;;;;;;;;5078419;28;20052;-71
2022/03/03 06:36:57;;;;;;;13.95;9.40;;;;;;;;;;5080119;28;20048;-70
2022/03/03 06:39:23;;;;;;;11.70;9.10;;;;;;;;;;5080155;28;20132;-70
2022/03/03 06:41:50;;;;;;;11.55;9.43;;;;;;;;;;5079663;28;20044;-70
2022/03/03 06:44:16;;;;;;;11.02;8.80;;;;;;;;;;5078584;28;20399;-72
2022/03/03 06:46:42;;;;;;;11.07;9.13;;;;;;;;;;5079391;28;20076;-72
2022/03/03 06:49:08;;;;;;;12.05;8.93;;;;;;;;;;5081437;28;20051;-72
2022/03/03 06:51:39;;;;;;;11.07;9.10;;;;;;;;;;5079660;28;20456;-72
2022/03/03 06:54:06;;;;;;;10.88;9.13;;;;;;;;;;5089347;28;20040;-70
2022/03/03 06:56:35;;;;;;;11.63;9.13;;;;;;;;;;5078042;28;20047;-70
2022/03/03 06:59:01;;;;;;;11.43;9.33;;;;;;;;;;5090290;28;20103;-71
2022/03/03 07:01:28;;;;;;;9.57;8.30;;;;;;;;;;5079875;28;20085;-69
2022/03/03 07:03:56;;;;;;;16.20;10.50;;;;;;;;;;5078704;28;20036;-70
2022/03/03 07:06:22;;;;;;;10.73;8.93;;;;;;;;;;5065965;28;20443;-69
2022/03/03 07:08:49;;;;;;;12.32;8.15;;;;;;;;;;5065984;28;20600;-71
2022/03/03 07:11:16;;;;;;;11.90;8.82;;;;;;;;;;5081577;28;20082;-71
2022/03/03 07:13:44;;;;;;;11.27;8.73;;;;;;;;;;5089831;28;20143;-71
2022/03/03 07:16:13;;;;;;;10.48;8.70;;;;;;;;;;5080595;28;20044;-72
2022/03/03 07:18:41;;;;;;;12.07;8.73;;;;;;;;;;5081552;28;20052;-72
2022/03/03 07:21:20;;;;;;;11.45;9.10;;;;;;;;;;5077079;28;20101;-72
2022/03/03 07:23:49;;;;;;;12.10;8.93;;;;;;;;;;5089534;28;20043;-72
2022/03/03 07:26:15;;;;;;;10.70;8.80;;;;;;;;;;5089482;28;20375;-72
2022/03/03 07:28:46;;;;;;;10.15;8.45;;;;;;;;;;5089354;28;20056;-70
2022/03/03 07:31:14;;;;;;;11.25;8.95;;;;;;;;;;5087479;28;20044;-71
2022/03/03 07:33:40;;;;;;;10.57;8.52;;;;;;;;;;5079922;28;20498;-71
2022/03/03 07:36:09;;;;;;;14.02;8.90;;;;;;;;;;5078494;28;20134;-70
2022/03/03 07:38:37;;;;;;;13.63;9.38;;;;;;;;;;5087400;28;20125;-71
2022/03/03 07:41:03;;;;;;;12.63;8.88;;;;;;;;;;5088941;28;20044;-71
2022/03/03 07:43:30;;;;;;;13.05;9.23;;;;;;;;;;5089183;28;20179;-72
2022/03/03 07:45:56;;;;;;;11.60;9.18;;;;;;;;;;5088848;28;20430;-72
2022/03/03 07:48:23;;;;;;;13.10;8.80;;;;;;;;;;5089470;28;20036;-71
2022/03/03 07:50:50;;;;;;;12.48;8.45;;;;;;;;;;5089418;28;20179;-71
2022/03/03 07:53:16;;;;;;;12.80;9.35;;;;;;;;;;5063622;28;20044;-71
2022/03/03 07:55:46;;;;;;;14.27;9.57;;;;;;;;;;5079311;28;20083;-71
2022/03/03 07:58:19;;;;;;;15.07;9.00;;;;;;;;;;5079868;28;20071;-71
2022/03/03 08:00:48;;;;;;;10.25;8.52;;;;;;;;;;5086599;28;20123;-71
2022/03/03 08:03:19;;;;;;;12.93;8.60;;;;;;;;;;5077813;28;20154;-71
2022/03/03 08:05:47;;;;;;;11.98;9.07;;;;;;;;;;5088849;28;20123;-71
2022/03/03 08:08:15;;;;;;;11.85;9.57;;;;;;;;;;5078142;28;20068;-72
2022/03/03 08:10:42;;;;;;;10.73;8.38;;;;;;;;;;5082087;28;20047;-72
2022/03/03 08:13:10;;;;;;;10.75;8.40;;;;;;;;;;5088700;28;20105;-72
2022/03/03 08:15:38;;;;;;;10.57;8.55;;;;;;;;;;5086433;28;20477;-71
2022/03/03 08:18:04;;;;;;;11.50;9.27;;;;;;;;;;5079168;28;20043;-71
2022/03/03 08:20:33;;;;;;;10.95;8.43;;;;;;;;;;5088848;28;20044;-71
2022/03/03 08:23:00;;;;;;;11.82;8.85;;;;;;;;;;5077718;28;20044;-71
2022/03/03 08:25:26;;;;;;;11.68;8.30;;;;;;;;;;5079066;28;20048;-71
2022/03/03 08:27:54;;;;;;;10.20;8.50;;;;;;;;;;5079923;28;20052;-71
2022/03/03 08:30:21;;;;;;;11.07;8.32;;;;;;;;;;5078020;28;20502;-72
2022/03/03 08:33:00;;;;;;;11.43;8.63;;;;;;;;;;5061588;28;20427;-71
2022/03/03 08:35:29;;;;;;;11.00;8.35;;;;;;;;;;5064059;28;20152;-72
2022/03/03 08:38:04;;;;;;;11.75;8.43;;;;;;;;;;5088510;28;20044;-72
2022/03/03 08:40:30;;;;;;;10.93;9.02;;;;;;;;;;5076509;28;20055;-72
2022/03/03 08:42:59;;;;;;;10.77;7.97;;;;;;;;;;5060921;28;20123;-72
2022/03/03 08:45:29;;;;;;;11.88;8.60;;;;;;;;;;5078386;28;20089;-72
2022/03/03 08:47:55;;;;;;;;;;;;;;;;;;5076407;28;20039;-72
2022/03/03 08:50:22;;;;;;;11.63;8.48;;;;;;;;;;5060904;28;19924;-72
2022/03/03 08:52:48;;;;;;;10.57;8.38;;;;;;;;;;5079225;28;20097;-72
2022/03/03 08:55:14;;;;;;;11.27;8.32;;;;;;;;;;5075942;28;20092;-72
2022/03/03 08:57:40;;;;;;;10.77;8.07;;;;;;;;;;5060235;28;20040;-72
2022/03/03 09:00:08;;;;;;;15.45;8.68;;;;;;;;;;5059928;28;20327;-70
2022/03/03 09:02:34;;;;;;;13.80;8.48;;;;;;;;;;5064251;28;20048;-70
2022/03/03 09:05:00;;;;;;;13.07;9.13;;;;;;;;;;5087104;28;20393;-70
2022/03/03 09:07:26;;;;;;;12.50;9.07;;;;;;;;;;5078458;28;20492;-70
2022/03/03 09:09:53;;;;;;;11.90;9.00;;;;;;;;;;5087010;28;20043;-70
2022/03/03 09:12:19;;;;;;;14.02;8.95;;;;;;;;;;5087202;28;20059;-70
2022/03/03 09:14:45;;;;;;;9.90;8.07;;;;;;;;;;5076496;28;20498;-70
2022/03/03 09:17:11;;;;;;;12.52;8.38;;;;;;;;;;5086799;28;20490;-71
2022/03/03 09:19:37;;;;;;;10.82;8.57;;;;;;;;;;5088769;28;20459;-71
2022/03/03 09:22:03;;;;;;;10.27;7.50;;;;;;;;;;5088900;28;20048;-71
2022/03/03 09:24:30;;;;;;;12.43;8.18;;;;;;;;;;5088598;28;20090;-70
2022/03/03 09:26:56;;;;;;;10.55;7.93;;;;;;;;;;5088325;28;20048;-69
2022/03/03 09:29:22;;;;;;;10.05;7.70;;;;;;;;;;5088277;28;20040;-70
2022/03/03 09:31:48;;;;;;;9.18;7.53;;;;;;;;;;5088615;28;20464;-70
2022/03/03 09:34:15;;;;;;;10.82;7.82;;;;;;;;;;5086915;28;20051;-69
2022/03/03 09:36:41;;;;;;;11.43;8.05;;;;;;;;;;5065188;28;20911;-68
2022/03/03 09:39:07;;;;;;;10.88;8.50;;;;;;;;;;5087798;28;20130;-69
2022/03/03 09:41:33;;;;;;;10.98;8.23;;;;;;;;;;5077863;28;20040;-69
2022/03/03 09:43:59;;;;;;;10.13;8.00;;;;;;;;;;5087919;28;20146;-70
2022/03/03 09:46:25;;;;;;;10.30;7.72;;;;;;;;;;5070249;28;20051;-69
2022/03/03 09:48:52;;;;;;;10.52;8.15;;;;;;;;;;5081633;28;20535;-71
2022/03/03 09:51:18;;;;;;;10.27;8.15;;;;;;;;;;5086830;28;20481;-70
2022/03/03 09:53:49;;;;;;;9.68;7.53;;;;;;;;;;5066482;28;20097;-70
2022/03/03 09:56:15;;;;;;;11.40;8.45;;;;;;;;;;5088279;28;20055;-69
2022/03/03 09:58:41;;;;;;;9.90;8.15;;;;;;;;;;5087411;28;20366;-70
2022/03/03 10:01:08;;;;;;;11.07;8.20;;;;;;;;;;5085768;28;20101;-69
2022/03/03 10:03:35;;;;;;;11.38;8.00;;;;;;;;;;5087741;28;20439;-68
2022/03/03 10:06:01;;;;;;;9.43;7.93;;;;;;;;;;5069744;28;20051;-68
2022/03/03 10:08:28;;;;;;;10.48;8.13;;;;;;;;;;5087456;28;20051;-69
2022/03/03 10:10:58;;;;;;;10.85;8.23;;;;;;;;;;5072955;28;20051;-69
2022/03/03 10:13:25;;;;;;;10.88;7.95;;;;;;;;;;5069281;28;20036;-69
2022/03/03 10:15:53;;;;;;;10.07;8.30;;;;;;;;;;5074454;28;20040;-70
2022/03/03 10:18:20;;;;;;;9.77;7.90;;;;;;;;;;5088020;28;20056;-69
2022/03/03 10:20:46;;;;;;;10.25;8.07;;;;;;;;;;5086234;28;20048;-69
2022/03/03 10:23:12;;;;;;;10.18;7.90;;;;;;;;;;5069622;28;20113;-68
2022/03/03 10:25:42;;;;;;;10.35;8.40;;;;;;;;;;5087732;28;20079;-70
2022/03/03 10:28:13;;;;;;;10.15;7.90;;;;;;;;;;5087725;28;20134;-69
2022/03/03 10:30:51;;;;;;;9.65;7.53;;;;;;;;;;5072357;28;20044;-68
2022/03/03 10:33:18;;;;;;;11.00;8.73;;;;;;;;;;5084021;28;20060;-68
2022/03/03 10:36:03;;;;;;;10.80;8.50;;;;;;;;;;5084531;28;20048;-69
2022/03/03 10:38:29;;;;;;;9.73;7.47;;;;;;;;;;5072383;28;20086;-69
2022/03/03 10:40:56;;;;;;;11.70;8.65;;;;;;;;;;5088601;28;20055;-69
2022/03/03 10:43:22;;;;;;;11.13;8.60;;;;;;;;;;5081562;28;20059;-69
2022/03/03 10:45:59;;;;;;;10.13;8.38;;;;;;;;;;5077356;28;20048;-70
2022/03/03 10:48:26;;;;;;;10.30;7.90;;;;;;;;;;5087322;28;20063;-69
2022/03/03 10:50:54;;;;;;;9.40;7.63;;;;;;;;;;5087888;28;20378;-69
2022/03/03 10:53:21;;;;;;;9.57;7.80;;;;;;;;;;5087162;28;20401;-69
2022/03/03 10:56:07;;;;;;;11.07;8.13;;;;;;;;;;5087258;28;20140;-69
2022/03/03 10:58:43;;;;;;;10.77;7.68;;;;;;;;;;5069300;28;20096;-69
2022/03/03 11:01:09;;;;;;;10.02;8.07;;;;;;;;;;5051877;28;20032;-70
2022/03/03 11:03:36;;;;;;;10.15;8.10;;;;;;;;;;5086619;28;20044;-70
2022/03/03 11:06:06;;;;;;;10.50;8.48;;;;;;;;;;5086670;28;20176;-70
2022/03/03 11:08:33;;;;;;;10.27;8.38;;;;;;;;;;5070776;28;20515;-69
2022/03/03 11:10:59;;;;;;;10.25;7.90;;;;;;;;;;5090310;28;20596;-68
2022/03/03 11:13:25;;;;;;;11.05;8.48;;;;;;;;;;5072034;28;20044;-70
2022/03/03 11:15:52;;;;;;;10.43;7.97;;;;;;;;;;5055923;28;20368;-69
2022/03/03 11:18:19;;;;;;;10.77;7.95;;;;;;;;;;5090338;28;20500;-69
2022/03/03 11:20:51;;;;;;;11.00;8.20;;;;;;;;;;5072801;28;20044;-70
2022/03/03 11:23:18;;;;;;;11.73;8.50;;;;;;;;;;5055615;28;20039;-70
2022/03/03 11:25:47;;;;;;;11.77;8.27;;;;;;;;;;5090845;28;20052;-70
2022/03/03 11:28:15;;;;;;;9.80;7.95;;;;;;;;;;5090105;28;20096;-69
2022/03/03 11:30:43;;;;;;;8.90;7.25;;;;;;;;;;5090379;28;20109;-68
2022/03/03 11:33:27;;;;;;;9.88;8.60;;;;;;;;;;5090539;28;20067;-68
2022/03/03 11:36:16;;;;;;;11.60;8.65;;;;;;;;;;5087855;28;20048;-68
2022/03/03 11:39:01;;;;;;;10.05;8.38;;;;;;;;;;5091175;28;20122;-67
2022/03/03 11:41:47;;;;;;;10.65;8.18;;;;;;;;;;5092798;28;20076;-68
2022/03/03 11:44:17;;;;;;;10.45;8.05;;;;;;;;;;5096498;28;20414;-68
2022/03/03 11:46:42;;;;;;;;;;;;;;;;;;5095503;28;20416;-69
2022/03/03 11:49:12;;;;;;;10.48;7.63;;;;;;;;;;5093429;28;19920;-68
2022/03/03 11:51:38;;;;;;;10.00;8.27;;;;;;;;;;5074100;28;20048;-69
2022/03/03 11:54:09;;;;;;;10.52;8.68;;;;;;;;;;5092254;28;20552;-69
2022/03/03 11:56:35;;;;;;;10.45;8.00;;;;;;;;;;5092044;28;20467;-68
2022/03/03 11:59:11;;;;;;;9.27;7.68;;;;;;;;;;5089790;28;20043;-68
2022/03/03 12:01:54;;;;;;;9.75;7.57;;;;;;;;;;5090615;28;20055;-69
2022/03/03 12:04:25;;;;;;;10.88;8.27;;;;;;;;;;5088935;28;20112;-67
2022/03/03 12:06:51;;;;;;;10.50;7.88;;;;;;;;;;5089423;28;20116;-68
2022/03/03 12:09:18;;;;;;;9.70;8.10;;;;;;;;;;5072601;28;20568;-69
2022/03/03 12:11:45;;;;;;;10.13;7.80;;;;;;;;;;5071421;28;20211;-69
2022/03/03 12:14:29;;;;;;;10.73;8.50;;;;;;;;;;5090191;28;20051;-68
2022/03/03 12:17:16;;;;;;;9.80;8.10;;;;;;;;;;5089360;28;20079;-69
2022/03/03 12:19:42;;;;;;;11.07;7.75;;;;;;;;;;5070469;28;20054;-68
2022/03/03 12:22:23;;;;;;;10.10;7.43;;;;;;;;;;5055872;28;20048;-69
2022/03/03 12:24:49;;;;;;;11.43;7.70;;;;;;;;;;5090707;28;20056;-69
2022/03/03 12:27:16;;;;;;;9.23;7.35;;;;;;;;;;5090270;28;20040;-70
2022/03/03 12:29:49;;;;;;;11.50;7.25;;;;;;;;;;5090687;28;20480;-70
2022/03/03 12:32:32;;;;;;;11.23;7.57;;;;;;;;;;5089478;28;20079;-70
2022/03/03 12:35:18;;;;;;;9.52;7.18;;;;;;;;;;5090229;28;20044;-69
2022/03/03 12:37:47;;;;;;;9.43;7.22;;;;;;;;;;5072282;28;20122;-70
2022/03/03 12:40:18;;;;;;;11.20;7.20;;;;;;;;;;5072268;28;20131;-69
2022/03/03 12:42:45;;;;;;;8.57;6.55;;;;;;;;;;5090413;28;20135;-69
2022/03/03 12:45:16;;;;;;;9.73;7.82;;;;;;;;;;5090270;28;20459;-69
2022/03/03 12:47:45;;;;;;;8.85;6.72;;;;;;;;;;5078954;28;20056;-69
2022/03/03 12:50:11;;;;;;;;;;;;;;;;;;5089392;28;20051;-69
2022/03/03 12:52:38;;;;;;;9.43;7.18;;;;;;;;;;5089936;28;19920;-69
2022/03/03 12:55:06;;;;;;;8.30;6.63;;;;;;;;;;5094607;28;20044;-69
2022/03/03 12:57:33;;;;;;;8.55;6.80;;;;;;;;;;5094341;28;20081;-69
2022/03/03 13:00:06;;;;;;;9.43;7.30;;;;;;;;;;5090717;28;20050;-69
2022/03/03 13:02:48;;;;;;;8.70;6.90;;;;;;;;;;5089748;28;20079;-69
2022/03/03 13:05:27;;;;;;;8.45;7.00;;;;;;;;;;5094522;28;20048;-68
2022/03/03 13:07:53;;;;;;;8.50;7.15;;;;;;;;;;5079609;28;20519;-70
2022/03/03 13:10:19;;;;;;;10.75;6.85;;;;;;;;;;5071842;28;20159;-70
2022/03/03 13:12:45;;;;;;;11.07;7.18;;;;;;;;;;5089818;28;20075;-69
2022/03/03 13:15:12;;;;;;;8.63;7.32;;;;;;;;;;5089405;28;20047;-69
2022/03/03 13:17:55;;;;;;;10.32;7.13;;;;;;;;;;5071766;28;20059;-69
2022/03/03 13:20:22;;;;;;;8.80;7.15;;;;;;;;;;5087875;28;20140;-68
2022/03/03 13:22:48;;;;;;;9.65;7.40;;;;;;;;;;5089694;28;20099;-69
2022/03/03 13:25:17;;;;;;;7.90;6.35;;;;;;;;;;5089663;28;20124;-70
2022/03/03 13:27:47;;;;;;;9.57;7.20;;;;;;;;;;5089316;28;20508;-69
2022/03/03 13:30:13;;;;;;;8.40;6.50;;;;;;;;;;5089621;28;20040;-69
2022/03/03 13:32:46;;;;;;;9.70;7.00;;;;;;;;;;5088853;28;20048;-69
2022/03/03 13:35:13;;;;;;;8.18;6.63;;;;;;;;;;5070710;28;20048;-70
2022/03/03 13:37:39;;;;;;;10.32;6.70;;;;;;;;;;5089394;28;20052;-70
2022/03/03 13:40:12;;;;;;;9.55;6.32;;;;;;;;;;5071109;28;20063;-70
2022/03/03 13:42:41;;;;;;;9.52;6.57;;;;;;;;;;5088912;28;20461;-70
2022/03/03 13:45:07;;;;;;;9.27;6.57;;;;;;;;;;5088864;28;20108;-70
2022/03/03 13:47:38;;;;;;;8.30;6.25;;;;;;;;;;5053429;28;20598;-69
2022/03/03 13:50:06;;;;;;;8.90;6.40;;;;;;;;;;5089373;28;20105;-69
2022/03/03 13:52:36;;;;;;;9.00;6.03;;;;;;;;;;5089253;28;20040;-69
2022/03/03 13:55:07;;;;;;;10.75;6.82;;;;;;;;;;5088830;28;20055;-70
2022/03/03 13:57:41;;;;;;;11.05;6.95;;;;;;;;;;5070514;28;20408;-69
2022/03/03 14:00:17;;;;;;;7.88;5.90;;;;;;;;;;5088767;28;20055;-69
2022/03/03 14:02:50;;;;;;;8.45;6.30;;;;;;;;;;5067283;28;20048;-69
2022/03/03 14:05:16;;;;;;;8.43;6.30;;;;;;;;;;5068777;28;20049;-70
2022/03/03 14:07:49;;;;;;;7.78;5.93;;;;;;;;;;5067601;28;20121;-71
2022/03/03 14:10:15;;;;;;;8.70;6.30;;;;;;;;;;5068894;28;20040;-70
2022/03/03 14:12:59;;;;;;;8.88;6.53;;;;;;;;;;5066496;28;20048;-68
2022/03/03 14:15:26;;;;;;;7.60;5.70;;;;;;;;;;5073408;28;20051;-70
2022/03/03 14:17:52;;;;;;;7.90;5.97;;;;;;;;;;5087825;28;20152;-70
2022/03/03 14:20:19;;;;;;;9.35;6.22;;;;;;;;;;5088657;28;20083;-70
2022/03/03 14:22:54;;;;;;;7.78;5.68;;;;;;;;;;5087310;28;20047;-70
2022/03/03 14:25:20;;;;;;;7.95;5.85;;;;;;;;;;5085311;28;20052;-70
2022/03/03 14:27:46;;;;;;;8.02;5.97;;;;;;;;;;5088577;28;20127;-70
2022/03/03 14:30:12;;;;;;;11.20;6.43;;;;;;;;;;5070007;28;20040;-68
2022/03/03 14:32:38;;;;;;;10.35;6.40;;;;;;;;;;5088306;28;20044;-70